Time,TemperatureF,DewpointF,PressureIn,WindDirection,WindDirectionDegrees,WindSpeedMPH,WindSpeedGustMPH,Humidity,HourlyPrecipIn,Conditions,Clouds,dailyrainin,SoftwareType,DateUTC
2013-08-08 00:03:00,70.3,66.9,0.00,WNW,293,0.0,0.0,89,0.00,,,0.00,WUHU216HW,2013-08-08 04:03:00,
2013-08-08 00:08:00,70.1,66.7,0.00,WNW,293,0.0,0.0,89,0.00,,,0.00,WUHU216HW,2013-08-08 04:08:00,
2013-08-08 00:13:00,70.1,66.7,0.00,WNW,293,0.0,0.0,89,0.00,,,0.00,WUHU216HW,2013-08-08 04:13:00,
2013-08-08 00:19:00,70.1,67.1,0.00,WNW,293,0.0,0.0,90,0.00,,,0.00,WUHU216HW,2013-08-08 04:19:00,
2013-08-08 00:24:00,70.1,67.1,0.00,WNW,293,0.0,0.0,90,0.00,,,0.00,WUHU216HW,2013-08-08 04:24:00,
2013-08-08 00:29:00,69.9,66.9,0.00,WNW,293,0.0,0.0,90,0.00,,,0.00,WUHU216HW,2013-08-08 04:29:00,
2013-08-08 00:34:00,69.9,66.9,0.00,WNW,293,0.0,0.0,90,0.00,,,0.00,WUHU216HW,2013-08-08 04:34:00,
2013-08-08 00:39:00,69.9,66.9,0.00,WNW,293,0.0,0.0,90,0.00,,,0.00,WUHU216HW,2013-08-08 04:39:00,
2013-08-08 00:44:00,69.9,66.9,0.00,WNW,293,0.0,0.0,90,0.00,,,0.00,WUHU216HW,2013-08-08 04:44:00,
2013-08-08 00:50:00,69.8,66.7,0.00,WNW,293,0.0,0.0,90,0.00,,,0.00,WUHU216HW,2013-08-08 04:50:00,
2013-08-08 00:55:00,69.6,66.2,0.00,WNW,293,0.0,0.0,89,0.00,,,0.00,WUHU216HW,2013-08-08 04:55:00,
2013-08-08 01:00:00,69.6,66.2,0.00,WNW,293,0.0,0.0,89,0.00,,,0.00,WUHU216HW,2013-08-08 05:00:00,
2013-08-08 01:05:00,69.6,66.2,0.00,WNW,293,0.0,0.0,89,0.00,,,0.00,WUHU216HW,2013-08-08 05:05:00,
2013-08-08 01:10:00,69.4,66.0,0.00,WNW,293,0.0,0.0,89,0.00,,,0.00,WUHU216HW,2013-08-08 05:10:00,
2013-08-08 01:15:00,69.4,66.0,0.00,WNW,293,0.0,0.0,89,0.00,,,0.00,WUHU216HW,2013-08-08 05:15:00,
2013-08-08 01:21:00,69.2,65.8,0.00,WNW,293,0.0,0.0,89,0.00,,,0.00,WUHU216HW,2013-08-08 05:21:00,
2013-08-08 01:26:00,69.0,65.6,0.00,WNW,293,0.0,0.0,89,0.00,,,0.00,WUHU216HW,2013-08-08 05:26:00,
2013-08-08 01:31:00,68.9,65.8,0.00,WNW,293,0.0,0.0,90,0.00,,,0.00,WUHU216HW,2013-08-08 05:31:00,
2013-08-08 01:36:00,68.9,65.8,0.00,WNW,293,0.0,0.0,90,0.00,,,0.00,WUHU216HW,2013-08-08 05:36:00,
2013-08-08 01:41:00,68.7,65.6,0.00,WNW,293,0.0,0.0,90,0.00,,,0.00,WUHU216HW,2013-08-08 05:41:00,
2013-08-08 01:46:00,68.7,65.6,0.00,WNW,293,0.0,0.0,90,0.00,,,0.00,WUHU216HW,2013-08-08 05:46:00,
2013-08-08 01:52:00,68.7,65.6,0.00,WNW,293,0.0,0.0,90,0.00,,,0.00,WUHU216HW,2013-08-08 05:52:00,
2013-08-08 01:57:00,68.7,65.6,0.00,WNW,293,0.0,0.0,90,0.00,,,0.00,WUHU216HW,2013-08-08 05:57:00,
2013-08-08 02:02:00,68.5,65.4,0.00,WNW,293,0.0,0.0,90,0.00,,,0.00,WUHU216HW,2013-08-08 06:02:00,
2013-08-08 02:07:00,68.5,65.4,0.00,WNW,293,0.0,0.0,90,0.00,,,0.00,WUHU216HW,2013-08-08 06:07:00,
2013-08-08 02:12:00,68.3,65.3,0.00,WNW,293,0.0,0.0,90,0.00,,,0.00,WUHU216HW,2013-08-08 06:12:00,
2013-08-08 02:17:00,68.3,65.3,0.00,WNW,293,0.0,0.0,90,0.00,,,0.00,WUHU216HW,2013-08-08 06:17:00,
2013-08-08 02:23:00,68.1,65.1,0.00,WNW,293,0.0,0.0,90,0.00,,,0.00,WUHU216HW,2013-08-08 06:23:00,
2013-08-08 02:28:00,68.1,65.1,0.00,WNW,293,0.0,0.0,90,0.00,,,0.00,WUHU216HW,2013-08-08 06:28:00,
2013-08-08 02:33:00,68.1,65.1,0.00,WNW,293,0.0,0.0,90,0.00,,,0.00,WUHU216HW,2013-08-08 06:33:00,
2013-08-08 02:38:00,67.8,64.7,0.00,WNW,293,0.0,0.0,90,0.00,,,0.00,WUHU216HW,2013-08-08 06:38:00,
2013-08-08 02:43:00,67.8,64.7,0.00,WNW,293,0.0,0.0,90,0.00,,,0.00,WUHU216HW,2013-08-08 06:43:00,
2013-08-08 02:48:00,67.8,64.7,0.00,WNW,293,0.0,0.0,90,0.00,,,0.00,WUHU216HW,2013-08-08 06:48:00,
2013-08-08 02:54:00,67.8,64.7,0.00,WNW,293,0.0,0.0,90,0.00,,,0.00,WUHU216HW,2013-08-08 06:54:00,
2013-08-08 02:59:00,67.8,64.7,0.00,WNW,293,0.0,0.0,90,0.00,,,0.00,WUHU216HW,2013-08-08 06:59:00,
2013-08-08 03:04:00,67.8,64.7,0.00,WNW,293,0.0,0.0,90,0.00,,,0.00,WUHU216HW,2013-08-08 07:04:00,
2013-08-08 03:09:00,67.8,64.7,0.00,WNW,293,0.0,0.0,90,0.00,,,0.00,WUHU216HW,2013-08-08 07:09:00,
2013-08-08 03:14:00,67.8,64.7,0.00,WNW,293,0.0,0.0,90,0.00,,,0.00,WUHU216HW,2013-08-08 07:14:00,
2013-08-08 03:19:00,67.8,65.0,0.00,WNW,293,0.0,0.0,91,0.00,,,0.00,WUHU216HW,2013-08-08 07:19:00,
2013-08-08 03:25:00,67.8,65.0,0.00,WNW,293,0.0,0.0,91,0.00,,,0.00,WUHU216HW,2013-08-08 07:25:00,
2013-08-08 03:30:00,67.8,65.0,0.00,WNW,293,0.0,0.0,91,0.00,,,0.00,WUHU216HW,2013-08-08 07:30:00,
2013-08-08 03:35:00,67.8,65.0,0.00,WNW,293,0.0,0.0,91,0.00,,,0.00,WUHU216HW,2013-08-08 07:35:00,
2013-08-08 03:40:00,67.8,65.0,0.00,WNW,293,0.0,0.0,91,0.00,,,0.00,WUHU216HW,2013-08-08 07:40:00,
2013-08-08 03:45:00,67.8,65.0,0.00,WNW,293,0.0,0.0,91,0.00,,,0.00,WUHU216HW,2013-08-08 07:45:00,
2013-08-08 03:50:00,67.8,65.0,0.00,WNW,293,0.0,0.0,91,0.00,,,0.00,WUHU216HW,2013-08-08 07:50:00,
2013-08-08 03:56:00,67.8,65.0,0.00,WNW,293,0.0,0.0,91,0.00,,,0.00,WUHU216HW,2013-08-08 07:56:00,
2013-08-08 04:01:00,67.6,64.8,0.00,WNW,293,0.0,0.0,91,0.00,,,0.00,WUHU216HW,2013-08-08 08:01:00,
2013-08-08 04:06:00,67.6,64.8,0.00,WNW,293,0.0,0.0,91,0.00,,,0.00,WUHU216HW,2013-08-08 08:06:00,
2013-08-08 04:11:00,67.6,64.8,0.00,WNW,293,0.0,0.0,91,0.00,,,0.00,WUHU216HW,2013-08-08 08:11:00,
2013-08-08 04:16:00,67.4,64.7,0.00,WNW,293,0.0,0.0,91,0.00,,,0.00,WUHU216HW,2013-08-08 08:16:00,
2013-08-08 04:21:00,67.2,64.5,0.00,WNW,293,0.0,0.0,91,0.00,,,0.00,WUHU216HW,2013-08-08 08:21:00,
2013-08-08 04:27:00,67.2,64.5,0.00,WNW,293,0.0,0.0,91,0.00,,,0.00,WUHU216HW,2013-08-08 08:27:00,
2013-08-08 04:32:00,67.2,64.5,0.00,WNW,293,0.0,0.0,91,0.00,,,0.00,WUHU216HW,2013-08-08 08:32:00,
2013-08-08 04:37:00,67.1,64.3,0.00,WNW,293,0.0,0.0,91,0.00,,,0.00,WUHU216HW,2013-08-08 08:37:00,
2013-08-08 04:42:00,66.9,64.1,0.00,WNW,293,0.0,0.0,91,0.00,,,0.00,WUHU216HW,2013-08-08 08:42:00,
2013-08-08 04:47:00,66.9,64.1,0.00,WNW,293,0.0,0.0,91,0.00,,,0.00,WUHU216HW,2013-08-08 08:47:00,
2013-08-08 04:52:00,66.9,64.1,0.00,WNW,293,0.0,0.0,91,0.00,,,0.00,WUHU216HW,2013-08-08 08:52:00,
2013-08-08 04:58:00,66.9,64.1,0.00,WNW,293,0.0,0.0,91,0.00,,,0.00,WUHU216HW,2013-08-08 08:58:00,
2013-08-08 05:03:00,66.9,64.1,0.00,WNW,293,0.0,0.0,91,0.00,,,0.00,WUHU216HW,2013-08-08 09:03:00,
2013-08-08 05:08:00,66.9,64.1,0.00,WNW,293,0.0,0.0,91,0.00,,,0.00,WUHU216HW,2013-08-08 09:08:00,
2013-08-08 05:13:00,66.9,64.1,0.00,WNW,293,0.0,0.0,91,0.00,,,0.00,WUHU216HW,2013-08-08 09:13:00,
2013-08-08 05:18:00,66.9,64.1,0.00,WNW,293,0.0,0.0,91,0.00,,,0.00,WUHU216HW,2013-08-08 09:18:00,
2013-08-08 05:24:00,67.1,64.3,0.00,WNW,293,0.0,0.0,91,0.00,,,0.00,WUHU216HW,2013-08-08 09:24:00,
2013-08-08 05:29:00,66.9,64.1,0.00,WNW,293,0.0,0.0,91,0.00,,,0.00,WUHU216HW,2013-08-08 09:29:00,
2013-08-08 05:34:00,67.1,64.3,0.00,WNW,293,0.0,0.0,91,0.00,,,0.00,WUHU216HW,2013-08-08 09:34:00,
2013-08-08 05:39:00,66.9,64.1,0.00,WNW,293,0.0,0.0,91,0.00,,,0.00,WUHU216HW,2013-08-08 09:39:00,
2013-08-08 05:44:00,67.1,64.3,0.00,WNW,293,0.0,0.0,91,0.00,,,0.00,WUHU216HW,2013-08-08 09:44:00,
2013-08-08 05:49:00,66.9,64.1,0.00,WNW,293,0.0,0.0,91,0.00,,,0.00,WUHU216HW,2013-08-08 09:49:00,
2013-08-08 05:55:00,66.9,64.1,0.00,WNW,293,0.0,0.0,91,0.00,,,0.00,WUHU216HW,2013-08-08 09:55:00,
2013-08-08 06:00:00,66.9,64.1,0.00,WNW,293,0.0,0.0,91,0.00,,,0.00,WUHU216HW,2013-08-08 10:00:00,
2013-08-08 06:05:00,67.1,64.3,0.00,WNW,293,0.0,0.0,91,0.00,,,0.00,WUHU216HW,2013-08-08 10:05:00,
2013-08-08 06:10:00,67.1,64.3,0.00,North,0,0.0,0.0,91,0.00,,,0.00,WUHU216HW,2013-08-08 10:10:00,
2013-08-08 06:15:00,67.1,64.3,0.00,WNW,293,0.0,0.0,91,0.00,,,0.00,WUHU216HW,2013-08-08 10:15:00,
2013-08-08 06:20:00,67.1,64.3,0.00,WNW,293,0.0,0.0,91,0.00,,,0.00,WUHU216HW,2013-08-08 10:20:00,
2013-08-08 06:26:00,67.2,64.5,0.00,WNW,293,0.0,0.0,91,0.00,,,0.00,WUHU216HW,2013-08-08 10:26:00,
2013-08-08 06:31:00,67.2,64.5,0.00,WNW,293,0.0,0.0,91,0.00,,,0.00,WUHU216HW,2013-08-08 10:31:00,
2013-08-08 06:36:00,67.2,64.5,0.00,WNW,293,0.0,0.0,91,0.00,,,0.00,WUHU216HW,2013-08-08 10:36:00,
2013-08-08 06:41:00,67.2,64.5,0.00,WNW,293,0.0,0.0,91,0.00,,,0.00,WUHU216HW,2013-08-08 10:41:00,
2013-08-08 06:46:00,67.2,64.5,0.00,WNW,293,0.0,0.0,91,0.00,,,0.00,WUHU216HW,2013-08-08 10:46:00,
2013-08-08 06:51:00,67.2,64.5,0.00,WNW,293,0.0,0.0,91,0.00,,,0.00,WUHU216HW,2013-08-08 10:51:00,
2013-08-08 06:57:00,67.4,64.7,0.00,WNW,293,0.0,0.0,91,0.00,,,0.00,WUHU216HW,2013-08-08 10:57:00,
2013-08-08 07:02:00,67.6,64.8,0.00,WNW,293,0.0,0.0,91,0.00,,,0.00,WUHU216HW,2013-08-08 11:02:00,
2013-08-08 07:07:00,67.6,64.8,0.00,WNW,293,0.0,0.0,91,0.00,,,0.00,WUHU216HW,2013-08-08 11:07:00,
2013-08-08 07:12:00,67.4,64.7,0.00,WNW,293,0.0,0.0,91,0.00,,,0.00,WUHU216HW,2013-08-08 11:12:00,
2013-08-08 07:17:00,67.2,64.5,0.00,WNW,293,0.0,0.0,91,0.00,,,0.00,WUHU216HW,2013-08-08 11:17:00,
2013-08-08 07:22:00,67.2,64.5,0.00,WNW,293,0.0,0.0,91,0.00,,,0.00,WUHU216HW,2013-08-08 11:22:00,
2013-08-08 07:28:00,67.2,64.5,0.00,WNW,293,0.0,0.0,91,0.00,,,0.00,WUHU216HW,2013-08-08 11:28:00,
2013-08-08 07:33:00,67.2,64.5,0.00,WNW,293,0.0,0.0,91,0.00,,,0.00,WUHU216HW,2013-08-08 11:33:00,
2013-08-08 07:38:00,67.2,64.5,0.00,WNW,293,0.0,0.0,91,0.00,,,0.00,WUHU216HW,2013-08-08 11:38:00,
2013-08-08 07:43:00,67.2,64.5,0.00,WNW,293,0.0,0.0,91,0.00,,,0.00,WUHU216HW,2013-08-08 11:43:00,
2013-08-08 07:48:00,67.2,64.5,0.00,WNW,293,0.0,0.0,91,0.00,,,0.00,WUHU216HW,2013-08-08 11:48:00,
2013-08-08 07:53:00,67.2,64.5,0.00,WNW,293,0.0,0.0,91,0.00,,,0.00,WUHU216HW,2013-08-08 11:53:00,
2013-08-08 07:59:00,67.2,64.5,0.00,WNW,293,0.0,0.0,91,0.00,,,0.00,WUHU216HW,2013-08-08 11:59:00,
2013-08-08 08:04:00,67.6,64.8,0.00,WNW,293,0.0,0.0,91,0.00,,,0.00,WUHU216HW,2013-08-08 12:04:00,
2013-08-08 08:09:00,67.6,64.8,0.00,WNW,293,0.0,0.0,91,0.00,,,0.00,WUHU216HW,2013-08-08 12:09:00,
2013-08-08 08:14:00,67.6,64.8,0.00,WNW,293,0.0,0.0,91,0.00,,,0.00,WUHU216HW,2013-08-08 12:14:00,
2013-08-08 08:19:00,67.8,65.0,0.00,WNW,293,0.0,0.0,91,0.00,,,0.00,WUHU216HW,2013-08-08 12:19:00,
2013-08-08 08:24:00,67.8,65.0,0.00,WNW,293,0.0,0.0,91,0.00,,,0.00,WUHU216HW,2013-08-08 12:24:00,
2013-08-08 08:30:00,67.8,65.0,0.00,WNW,293,0.0,0.0,91,0.00,,,0.00,WUHU216HW,2013-08-08 12:30:00,
2013-08-08 08:35:00,68.1,65.7,0.00,WNW,293,0.0,0.0,92,0.00,,,0.00,WUHU216HW,2013-08-08 12:35:00,
2013-08-08 08:40:00,68.1,65.7,0.00,WNW,293,0.0,0.0,92,0.00,,,0.00,WUHU216HW,2013-08-08 12:40:00,
2013-08-08 08:45:00,68.1,65.9,0.00,WNW,293,0.0,0.0,92,0.00,,,0.00,WUHU216HW,2013-08-08 12:45:00,
2013-08-08 08:50:00,68.5,66.0,0.00,WNW,293,0.0,0.0,92,0.00,,,0.00,WUHU216HW,2013-08-08 12:50:00,
2013-08-08 08:55:00,68.7,66.2,0.00,WNW,293,0.0,0.0,92,0.00,,,0.00,WUHU216HW,2013-08-08 12:55:00,
2013-08-08 09:01:00,68.9,66.4,0.00,WNW,293,0.0,0.0,92,0.00,,,0.00,WUHU216HW,2013-08-08 13:01:00,
2013-08-08 09:06:00,69.0,66.6,0.00,WNW,293,0.0,0.0,92,0.00,,,0.00,WUHU216HW,2013-08-08 13:06:00,
2013-08-08 09:11:00,69.4,66.9,0.00,WNW,293,0.0,0.0,92,0.00,,,0.00,WUHU216HW,2013-08-08 13:11:00,
2013-08-08 09:16:00,69.8,67.3,0.00,WNW,293,0.0,0.0,92,0.00,,,0.00,WUHU216HW,2013-08-08 13:16:00,
2013-08-08 09:21:00,70.1,67.7,0.00,WNW,293,0.0,0.0,92,0.00,,,0.00,WUHU216HW,2013-08-08 13:21:00,
2013-08-08 09:26:00,70.5,68.0,0.00,NNE,23,0.0,0.0,92,0.00,,,0.00,WUHU216HW,2013-08-08 13:26:00,
2013-08-08 09:32:00,71.2,68.6,0.00,NW,315,0.0,0.0,92,0.00,,,0.00,WUHU216HW,2013-08-08 13:32:00,
2013-08-08 09:37:00,71.4,68.9,0.00,NW,315,0.0,0.0,92,0.00,,,0.00,WUHU216HW,2013-08-08 13:37:00,
2013-08-08 09:42:00,71.7,69.3,0.00,NW,315,0.0,1.5,92,0.00,,,0.00,WUHU216HW,2013-08-08 13:42:00,
2013-08-08 09:47:00,72.1,69.3,0.00,NW,315,0.0,1.5,91,0.00,,,0.00,WUHU216HW,2013-08-08 13:47:00,
2013-08-08 09:52:00,72.3,69.4,0.00,NW,315,0.0,3.5,90,0.00,,,0.00,WUHU216HW,2013-08-08 13:52:00,
2013-08-08 09:57:00,72.5,69.0,0.00,NW,315,0.0,3.5,89,0.00,,,0.00,WUHU216HW,2013-08-08 13:57:00,
2013-08-08 10:03:00,72.6,68.9,0.00,NW,315,0.0,0.0,88,0.00,,,0.00,WUHU216HW,2013-08-08 14:03:00,
2013-08-08 10:08:00,73.0,69.2,0.00,NW,315,0.0,2.6,88,0.00,,,0.00,WUHU216HW,2013-08-08 14:08:00,
2013-08-08 10:13:00,72.8,69.1,0.00,NW,315,0.0,2.6,88,0.00,,,0.00,WUHU216HW,2013-08-08 14:13:00,
2013-08-08 10:18:00,73.0,69.2,0.00,NW,315,0.0,0.0,88,0.00,,,0.00,WUHU216HW,2013-08-08 14:18:00,
2013-08-08 10:23:00,73.0,69.2,0.00,NW,315,0.0,0.0,88,0.00,,,0.00,WUHU216HW,2013-08-08 14:23:00,
2013-08-08 10:28:00,73.4,69.6,0.00,NW,315,0.0,0.0,88,0.00,,,0.00,WUHU216HW,2013-08-08 14:28:00,
2013-08-08 10:34:00,73.5,69.8,0.00,NW,315,0.0,0.0,88,0.00,,,0.00,WUHU216HW,2013-08-08 14:34:00,
2013-08-08 10:39:00,73.9,70.1,0.00,NW,315,0.0,0.0,88,0.00,,,0.00,WUHU216HW,2013-08-08 14:39:00,
2013-08-08 10:44:00,73.9,69.8,0.00,NW,315,0.0,0.0,87,0.00,,,0.00,WUHU216HW,2013-08-08 14:44:00,
2013-08-08 10:49:00,74.1,70.0,0.00,NW,315,0.0,0.0,87,0.00,,,0.00,WUHU216HW,2013-08-08 14:49:00,
2013-08-08 10:54:00,74.3,70.2,0.00,NW,315,0.0,0.0,87,0.00,,,0.00,WUHU216HW,2013-08-08 14:54:00,
2013-08-08 11:00:00,74.3,69.8,0.00,NW,315,0.0,0.0,86,0.00,,,0.00,WUHU216HW,2013-08-08 15:00:00,
2013-08-08 11:05:00,74.3,69.8,0.00,NW,315,0.0,0.0,86,0.00,,,0.00,WUHU216HW,2013-08-08 15:05:00,
2013-08-08 11:10:00,74.3,69.8,0.00,NW,315,0.0,0.0,86,0.00,,,0.00,WUHU216HW,2013-08-08 15:10:00,
2013-08-08 11:15:00,74.1,69.6,0.00,NW,315,0.0,1.7,86,0.00,,,0.00,WUHU216HW,2013-08-08 15:15:00,
2013-08-08 11:20:00,74.3,69.5,0.00,NW,315,0.0,1.7,85,0.00,,,0.00,WUHU216HW,2013-08-08 15:20:00,
2013-08-08 11:25:00,74.3,69.5,0.00,NW,315,0.0,0.0,85,0.00,,,0.00,WUHU216HW,2013-08-08 15:25:00,
2013-08-08 11:31:00,74.3,69.5,0.00,NW,315,0.0,0.0,85,0.00,,,0.00,WUHU216HW,2013-08-08 15:31:00,
2013-08-08 11:36:00,74.3,69.5,0.00,NW,315,0.0,0.0,85,0.00,,,0.00,WUHU216HW,2013-08-08 15:36:00,
2013-08-08 11:41:00,74.4,69.7,0.00,NW,315,0.0,0.0,85,0.00,,,0.00,WUHU216HW,2013-08-08 15:41:00,
2013-08-08 11:46:00,74.4,69.7,0.00,NW,315,0.0,0.0,85,0.00,,,0.00,WUHU216HW,2013-08-08 15:46:00,
2013-08-08 11:51:00,74.8,70.0,0.00,NW,315,0.0,0.0,85,0.00,,,0.00,WUHU216HW,2013-08-08 15:51:00,
2013-08-08 11:56:00,74.8,70.0,0.00,NW,315,0.0,0.0,85,0.00,,,0.00,WUHU216HW,2013-08-08 15:56:00,
2013-08-08 12:02:00,75.0,70.2,0.00,NW,315,0.0,0.0,85,0.00,,,0.00,WUHU216HW,2013-08-08 16:02:00,
2013-08-08 12:07:00,75.0,70.2,0.00,NW,315,0.0,0.0,85,0.00,,,0.00,WUHU216HW,2013-08-08 16:07:00,
2013-08-08 12:12:00,75.0,70.2,0.00,NW,315,0.0,0.0,85,0.00,,,0.00,WUHU216HW,2013-08-08 16:12:00,
2013-08-08 12:17:00,75.3,70.5,0.00,NW,315,0.0,0.0,85,0.00,,,0.00,WUHU216HW,2013-08-08 16:17:00,
2013-08-08 12:22:00,75.5,70.7,0.00,NW,315,0.0,0.0,85,0.00,,,0.00,WUHU216HW,2013-08-08 16:22:00,
2013-08-08 12:27:00,75.7,70.9,0.00,NW,315,0.0,0.0,85,0.00,,,0.00,WUHU216HW,2013-08-08 16:27:00,
2013-08-08 12:33:00,76.2,71.4,0.00,NW,315,0.0,0.0,85,0.00,,,0.00,WUHU216HW,2013-08-08 16:33:00,
2013-08-08 12:38:00,76.8,71.9,0.00,NW,315,0.0,0.0,85,0.00,,,0.00,WUHU216HW,2013-08-08 16:38:00,
2013-08-08 12:43:00,77.1,72.3,0.00,NW,315,0.0,0.0,85,0.00,,,0.00,WUHU216HW,2013-08-08 16:43:00,
2013-08-08 12:48:00,77.7,72.8,0.00,NW,315,0.0,0.0,85,0.00,,,0.00,WUHU216HW,2013-08-08 16:48:00,
2013-08-08 12:53:00,78.0,72.8,0.00,NW,315,0.0,0.0,84,0.00,,,0.00,WUHU216HW,2013-08-08 16:53:00,
2013-08-08 12:58:00,78.0,72.5,0.00,NW,315,0.0,0.0,83,0.00,,,0.00,WUHU216HW,2013-08-08 16:58:00,
2013-08-08 13:04:00,78.6,72.3,0.00,NW,315,0.0,0.0,81,0.00,,,0.00,WUHU216HW,2013-08-08 17:04:00,
2013-08-08 13:09:00,78.6,71.9,0.00,NW,315,0.0,0.0,80,0.00,,,0.00,WUHU216HW,2013-08-08 17:09:00,
2013-08-08 13:14:00,78.6,71.5,0.00,NNW,338,0.0,0.0,79,0.00,,,0.00,WUHU216HW,2013-08-08 17:14:00,
2013-08-08 13:19:00,78.6,71.5,0.00,NNW,338,0.0,0.0,79,0.00,,,0.00,WUHU216HW,2013-08-08 17:19:00,
2013-08-08 13:24:00,78.6,71.5,0.00,NW,315,0.0,0.0,79,0.00,,,0.00,WUHU216HW,2013-08-08 17:24:00,
2013-08-08 13:29:00,78.6,71.9,0.00,NW,315,0.0,0.0,80,0.00,,,0.00,WUHU216HW,2013-08-08 17:29:00,
2013-08-08 13:35:00,78.6,71.5,0.00,NW,315,0.0,0.0,79,0.00,,,0.00,WUHU216HW,2013-08-08 17:35:00,
2013-08-08 13:40:00,78.9,71.9,0.00,NW,315,0.0,0.0,79,0.00,,,0.00,WUHU216HW,2013-08-08 17:40:00,
2013-08-08 13:45:00,79.3,72.2,0.00,NW,315,0.0,0.0,79,0.00,,,0.00,WUHU216HW,2013-08-08 17:45:00,
2013-08-08 13:50:00,79.5,72.4,0.00,NW,315,0.0,0.0,79,0.00,,,0.00,WUHU216HW,2013-08-08 17:50:00,
2013-08-08 13:55:00,79.8,72.8,0.00,NW,315,0.0,0.0,79,0.00,,,0.00,WUHU216HW,2013-08-08 17:55:00,
2013-08-08 14:00:00,79.8,72.4,0.00,NW,315,0.0,0.0,78,0.00,,,0.00,WUHU216HW,2013-08-08 18:00:00,
2013-08-08 14:06:00,80.2,72.7,0.00,NW,315,0.0,0.0,78,0.00,,,0.00,WUHU216HW,2013-08-08 18:06:00,
2013-08-08 14:11:00,80.4,72.5,0.00,NW,315,0.0,0.0,77,0.00,,,0.00,WUHU216HW,2013-08-08 18:11:00,
2013-08-08 14:16:00,80.4,72.1,0.00,NW,315,0.0,0.0,76,0.00,,,0.00,WUHU216HW,2013-08-08 18:16:00,
2013-08-08 14:21:00,80.6,72.3,0.00,NW,315,0.0,0.0,76,0.00,,,0.00,WUHU216HW,2013-08-08 18:21:00,
2013-08-08 14:26:00,80.7,72.9,0.00,NW,315,0.0,0.0,77,0.00,,,0.00,WUHU216HW,2013-08-08 18:26:00,
2013-08-08 14:31:00,80.4,71.3,0.00,NW,315,0.0,0.0,74,0.00,,,0.00,WUHU216HW,2013-08-08 18:31:00,
2013-08-08 14:37:00,80.2,71.2,0.00,NW,315,0.0,0.0,74,0.00,,,0.00,WUHU216HW,2013-08-08 18:37:00,
2013-08-08 14:42:00,79.7,71.0,0.00,NW,315,0.0,0.0,75,0.00,,,0.00,WUHU216HW,2013-08-08 18:42:00,
2013-08-08 14:47:00,79.5,70.8,0.00,WNW,293,0.0,0.0,75,0.00,,,0.00,WUHU216HW,2013-08-08 18:47:00,
2013-08-08 14:52:00,78.9,69.9,0.00,WNW,293,0.0,0.0,74,0.00,,,0.00,WUHU216HW,2013-08-08 18:52:00,
2013-08-08 14:57:00,78.6,69.9,0.00,WNW,293,0.0,0.0,75,0.00,,,0.00,WUHU216HW,2013-08-08 18:57:00,
2013-08-08 15:06:00,77.5,68.9,0.00,WNW,293,0.0,0.0,75,0.00,,,0.00,WUHU216HW,2013-08-08 19:06:00,
2013-08-08 15:10:00,76.8,70.1,0.00,WNW,293,0.0,0.0,80,0.00,,,0.00,WUHU216HW,2013-08-08 19:10:00,
2013-08-08 15:16:00,76.4,70.1,0.00,WNW,293,0.0,0.0,81,0.00,,,0.00,WUHU216HW,2013-08-08 19:16:00,
2013-08-08 15:21:00,76.2,70.3,0.00,WNW,293,0.0,0.0,82,0.00,,,0.00,WUHU216HW,2013-08-08 19:21:00,
2013-08-08 15:26:00,76.4,70.9,0.00,WNW,293,0.0,0.0,83,0.00,,,0.00,WUHU216HW,2013-08-08 19:26:00,
2013-08-08 15:31:00,76.6,71.0,0.00,WNW,293,0.0,0.0,83,0.00,,,0.00,WUHU216HW,2013-08-08 19:31:00,
2013-08-08 15:36:00,76.6,71.0,0.00,WNW,293,0.0,0.0,83,0.00,,,0.00,WUHU216HW,2013-08-08 19:36:00,
2013-08-08 15:41:00,76.8,70.8,0.00,WNW,293,0.0,0.0,82,0.00,,,0.00,WUHU216HW,2013-08-08 19:41:00,
2013-08-08 15:47:00,76.8,70.5,0.00,WNW,293,0.0,0.0,81,0.00,,,0.00,WUHU216HW,2013-08-08 19:47:00,
2013-08-08 15:52:00,77.0,70.7,0.00,WNW,293,0.0,0.0,81,0.00,,,0.00,WUHU216HW,2013-08-08 19:52:00,
2013-08-08 15:57:00,77.1,70.5,0.00,WNW,293,0.0,0.0,80,0.00,,,0.00,WUHU216HW,2013-08-08 19:57:00,
2013-08-08 16:05:00,77.3,70.3,0.00,WNW,293,0.0,0.0,80,0.00,,,0.00,WUHU216HW,2013-08-08 20:05:00,
2013-08-08 16:09:00,77.5,70.4,0.00,WNW,293,0.0,0.0,79,0.00,,,0.00,WUHU216HW,2013-08-08 20:09:00,
2013-08-08 16:15:00,77.7,71.0,0.00,WNW,293,0.0,0.0,80,0.00,,,0.00,WUHU216HW,2013-08-08 20:15:00,
2013-08-08 16:20:00,77.7,70.6,0.00,WNW,293,0.0,0.0,79,0.00,,,0.00,WUHU216HW,2013-08-08 20:20:00,
2013-08-08 16:25:00,77.7,70.8,0.00,WNW,293,0.0,0.0,79,0.00,,,0.00,WUHU216HW,2013-08-08 20:25:00,
2013-08-08 16:30:00,77.9,71.2,0.00,WNW,293,0.0,0.0,80,0.00,,,0.00,WUHU216HW,2013-08-08 20:30:00,
2013-08-08 16:35:00,77.9,70.8,0.00,WNW,293,0.0,0.0,79,0.00,,,0.00,WUHU216HW,2013-08-08 20:35:00,
2013-08-08 16:40:00,77.9,70.4,0.00,WNW,293,0.0,1.7,78,0.00,,,0.00,WUHU216HW,2013-08-08 20:40:00,
2013-08-08 16:46:00,77.9,70.8,0.00,WNW,293,0.0,1.7,79,0.00,,,0.00,WUHU216HW,2013-08-08 20:46:00,
2013-08-08 16:51:00,77.9,71.2,0.00,WNW,293,0.0,0.0,80,0.00,,,0.00,WUHU216HW,2013-08-08 20:51:00,
2013-08-08 16:56:00,78.0,71.4,0.00,WNW,293,0.0,0.0,80,0.00,,,0.00,WUHU216HW,2013-08-08 20:56:00,
2013-08-08 17:05:00,78.0,71.4,0.00,WNW,293,0.0,0.0,80,0.00,,,0.00,WUHU216HW,2013-08-08 21:05:00,
2013-08-08 17:10:00,78.0,71.4,0.00,WNW,293,0.0,0.0,80,0.00,,,0.00,WUHU216HW,2013-08-08 21:10:00,
2013-08-08 17:15:00,77.9,71.2,0.00,WNW,293,0.0,0.0,80,0.00,,,0.00,WUHU216HW,2013-08-08 21:15:00,
2013-08-08 17:20:00,77.7,71.0,0.00,WNW,293,0.0,0.0,80,0.00,,,0.00,WUHU216HW,2013-08-08 21:20:00,
2013-08-08 17:25:00,77.7,71.4,0.00,WNW,293,0.0,0.0,81,0.00,,,0.00,WUHU216HW,2013-08-08 21:25:00,
2013-08-08 17:30:00,77.7,71.0,0.00,WNW,293,0.0,0.0,80,0.00,,,0.00,WUHU216HW,2013-08-08 21:30:00,
2013-08-08 17:36:00,77.5,71.2,0.00,WNW,293,0.0,0.0,81,0.00,,,0.00,WUHU216HW,2013-08-08 21:36:00,
2013-08-08 17:41:00,77.5,71.2,0.00,WNW,293,0.0,0.0,81,0.00,,,0.00,WUHU216HW,2013-08-08 21:41:00,
2013-08-08 17:46:00,77.3,71.0,0.00,WNW,293,0.0,0.0,81,0.00,,,0.00,WUHU216HW,2013-08-08 21:46:00,
2013-08-08 17:51:00,77.1,70.8,0.00,WNW,293,0.0,0.0,81,0.00,,,0.00,WUHU216HW,2013-08-08 21:51:00,
2013-08-08 17:56:00,77.1,70.8,0.00,WNW,293,0.0,0.0,81,0.00,,,0.00,WUHU216HW,2013-08-08 21:56:00,
2013-08-08 18:01:00,77.1,71.2,0.00,WNW,293,0.0,0.0,82,0.00,,,0.00,WUHU216HW,2013-08-08 22:01:00,
2013-08-08 18:06:00,77.1,71.2,0.00,WNW,293,0.0,0.0,82,0.00,,,0.00,WUHU216HW,2013-08-08 22:06:00,
2013-08-08 18:11:00,77.1,71.2,0.00,WNW,293,0.0,0.0,82,0.00,,,0.00,WUHU216HW,2013-08-08 22:11:00,
2013-08-08 18:16:00,77.1,71.2,0.00,WNW,293,0.0,0.0,82,0.00,,,0.00,WUHU216HW,2013-08-08 22:16:00,
2013-08-08 18:21:00,77.1,71.2,0.00,WNW,293,0.0,0.0,82,0.00,,,0.00,WUHU216HW,2013-08-08 22:21:00,
2013-08-08 18:27:00,77.1,71.6,0.00,WNW,293,0.0,0.0,83,0.00,,,0.00,WUHU216HW,2013-08-08 22:27:00,
2013-08-08 18:32:00,76.8,70.8,0.00,WNW,293,0.0,0.0,82,0.00,,,0.00,WUHU216HW,2013-08-08 22:32:00,
2013-08-08 18:37:00,76.8,71.2,0.00,WNW,293,0.0,0.0,83,0.00,,,0.00,WUHU216HW,2013-08-08 22:37:00,
2013-08-08 18:42:00,76.8,71.2,0.00,WNW,293,0.0,0.0,83,0.00,,,0.00,WUHU216HW,2013-08-08 22:42:00,
2013-08-08 18:47:00,76.6,71.0,0.00,WNW,293,0.0,0.0,83,0.00,,,0.00,WUHU216HW,2013-08-08 22:47:00,
2013-08-08 18:52:00,76.6,71.0,0.00,WNW,293,0.0,0.0,83,0.00,,,0.00,WUHU216HW,2013-08-08 22:52:00,
2013-08-08 18:58:00,76.6,71.4,0.00,WNW,293,0.0,0.0,84,0.00,,,0.00,WUHU216HW,2013-08-08 22:58:00,
2013-08-08 19:03:00,76.4,71.2,0.00,WNW,293,0.0,0.0,84,0.00,,,0.00,WUHU216HW,2013-08-08 23:03:00,
2013-08-08 19:08:00,76.4,71.2,0.00,WNW,293,0.0,0.0,84,0.00,,,0.00,WUHU216HW,2013-08-08 23:08:00,
2013-08-08 19:13:00,76.2,71.0,0.00,WNW,293,0.0,0.0,84,0.00,,,0.00,WUHU216HW,2013-08-08 23:13:00,
2013-08-08 19:18:00,76.4,71.2,0.00,WNW,293,0.0,0.0,84,0.00,,,0.00,WUHU216HW,2013-08-08 23:18:00,
2013-08-08 19:23:00,76.4,71.2,0.00,WNW,293,0.0,0.0,84,0.00,,,0.00,WUHU216HW,2013-08-08 23:23:00,
2013-08-08 19:29:00,76.4,71.2,0.00,WNW,293,0.0,0.0,84,0.00,,,0.00,WUHU216HW,2013-08-08 23:29:00,
2013-08-08 19:34:00,76.4,71.2,0.00,WNW,293,0.0,0.0,84,0.00,,,0.00,WUHU216HW,2013-08-08 23:34:00,
2013-08-08 19:39:00,76.4,71.2,0.00,WNW,293,0.0,0.0,84,0.00,,,0.00,WUHU216HW,2013-08-08 23:39:00,
2013-08-08 19:44:00,76.2,71.0,0.00,WNW,293,0.0,0.0,84,0.00,,,0.00,WUHU216HW,2013-08-08 23:44:00,
2013-08-08 19:49:00,76.1,70.9,0.00,WNW,293,0.0,0.0,84,0.00,,,0.00,WUHU216HW,2013-08-08 23:49:00,
2013-08-08 19:54:00,75.9,70.7,0.00,WNW,293,0.0,0.0,84,0.00,,,0.00,WUHU216HW,2013-08-08 23:54:00,
2013-08-08 20:00:00,75.7,70.5,0.00,WNW,293,0.0,0.0,84,0.00,,,0.00,WUHU216HW,2013-08-09 00:00:00,
2013-08-08 20:05:00,75.7,70.5,0.00,WNW,293,0.0,0.0,84,0.00,,,0.00,WUHU216HW,2013-08-09 00:05:00,
2013-08-08 20:10:00,75.5,70.7,0.00,WNW,293,0.0,0.0,85,0.00,,,0.00,WUHU216HW,2013-08-09 00:10:00,
2013-08-08 20:15:00,75.3,70.5,0.00,WNW,293,0.0,0.0,85,0.00,,,0.00,WUHU216HW,2013-08-09 00:15:00,
2013-08-08 20:20:00,75.0,70.2,0.00,WNW,293,0.0,0.0,85,0.00,,,0.00,WUHU216HW,2013-08-09 00:20:00,
2013-08-08 20:26:00,75.0,70.2,0.00,WNW,293,0.0,0.0,85,0.00,,,0.00,WUHU216HW,2013-08-09 00:26:00,
2013-08-08 20:31:00,74.8,70.0,0.00,WNW,293,0.0,0.0,85,0.00,,,0.00,WUHU216HW,2013-08-09 00:31:00,
2013-08-08 20:36:00,74.6,69.8,0.00,WNW,293,0.0,0.0,85,0.00,,,0.00,WUHU216HW,2013-08-09 00:36:00,
2013-08-08 20:41:00,74.4,69.7,0.00,WNW,293,0.0,0.0,85,0.00,,,0.00,WUHU216HW,2013-08-09 00:41:00,
2013-08-08 20:46:00,74.3,69.5,0.00,WNW,293,0.0,0.0,85,0.00,,,0.00,WUHU216HW,2013-08-09 00:46:00,
2013-08-08 20:51:00,74.1,69.3,0.00,WNW,293,0.0,0.0,85,0.00,,,0.00,WUHU216HW,2013-08-09 00:51:00,
2013-08-08 20:56:00,74.1,69.3,0.00,WNW,293,0.0,0.0,85,0.00,,,0.00,WUHU216HW,2013-08-09 00:56:00,
2013-08-08 21:02:00,74.1,69.3,0.00,WNW,293,0.0,0.0,85,0.00,,,0.00,WUHU216HW,2013-08-09 01:02:00,
2013-08-08 21:07:00,73.9,69.5,0.00,WNW,293,0.0,0.0,86,0.00,,,0.00,WUHU216HW,2013-08-09 01:07:00,
2013-08-08 21:13:00,73.9,69.5,0.00,WNW,293,0.0,0.0,86,0.00,,,0.00,WUHU216HW,2013-08-09 01:13:00,
2013-08-08 21:18:00,73.7,69.3,0.00,WNW,293,0.0,0.0,86,0.00,,,0.00,WUHU216HW,2013-08-09 01:18:00,
2013-08-08 21:23:00,73.7,69.3,0.00,WNW,293,0.0,0.0,86,0.00,,,0.00,WUHU216HW,2013-08-09 01:23:00,
2013-08-08 21:28:00,73.5,69.1,0.00,WNW,293,0.0,0.0,86,0.00,,,0.00,WUHU216HW,2013-08-09 01:28:00,
2013-08-08 21:33:00,73.5,69.1,0.00,WNW,293,0.0,0.0,86,0.00,,,0.00,WUHU216HW,2013-08-09 01:33:00,
2013-08-08 21:38:00,73.5,69.4,0.00,WNW,293,0.0,0.0,87,0.00,,,0.00,WUHU216HW,2013-08-09 01:38:00,
2013-08-08 21:44:00,73.5,69.4,0.00,WNW,293,0.0,0.0,87,0.00,,,0.00,WUHU216HW,2013-08-09 01:44:00,
2013-08-08 21:49:00,73.5,69.4,0.00,WNW,293,0.0,0.0,87,0.00,,,0.00,WUHU216HW,2013-08-09 01:49:00,
2013-08-08 21:54:00,73.5,69.4,0.00,WNW,293,0.0,0.0,87,0.00,,,0.00,WUHU216HW,2013-08-09 01:54:00,
2013-08-08 21:59:00,73.5,69.4,0.00,WNW,293,0.0,0.0,87,0.00,,,0.00,WUHU216HW,2013-08-09 01:59:00,
2013-08-08 22:04:00,73.4,69.3,0.00,WNW,293,0.0,0.0,87,0.00,,,0.00,WUHU216HW,2013-08-09 02:04:00,
2013-08-08 22:09:00,73.4,69.3,0.00,WNW,293,0.0,0.0,87,0.00,,,0.00,WUHU216HW,2013-08-09 02:09:00,
2013-08-08 22:15:00,73.4,69.3,0.00,WNW,293,0.0,0.0,87,0.00,,,0.00,WUHU216HW,2013-08-09 02:15:00,
2013-08-08 22:20:00,73.4,69.3,0.00,WNW,293,0.0,0.0,87,0.00,,,0.00,WUHU216HW,2013-08-09 02:20:00,
2013-08-08 22:25:00,73.2,69.1,0.00,WNW,293,0.0,0.0,87,0.00,,,0.00,WUHU216HW,2013-08-09 02:25:00,
2013-08-08 22:30:00,73.2,69.1,0.00,WNW,293,0.0,0.0,87,0.00,,,0.00,WUHU216HW,2013-08-09 02:30:00,
2013-08-08 22:35:00,73.2,69.1,0.00,WNW,293,0.0,0.0,87,0.00,,,0.00,WUHU216HW,2013-08-09 02:35:00,
2013-08-08 22:41:00,73.2,69.1,0.00,WNW,293,0.0,0.0,87,0.00,,,0.00,WUHU216HW,2013-08-09 02:41:00,
2013-08-08 22:46:00,73.0,69.1,0.00,WNW,293,0.0,0.0,87,0.00,,,0.00,WUHU216HW,2013-08-09 02:46:00,
2013-08-08 22:51:00,73.0,68.9,0.00,WNW,293,0.0,0.0,87,0.00,,,0.00,WUHU216HW,2013-08-09 02:51:00,
2013-08-08 22:56:00,73.2,69.2,0.00,WNW,293,0.0,0.0,88,0.00,,,0.00,WUHU216HW,2013-08-09 02:56:00,
2013-08-08 23:01:00,73.2,69.4,0.00,WNW,293,0.0,0.0,88,0.00,,,0.00,WUHU216HW,2013-08-09 03:01:00,
2013-08-08 23:06:00,73.2,69.4,0.00,WNW,293,0.0,0.0,88,0.00,,,0.00,WUHU216HW,2013-08-09 03:06:00,
2013-08-08 23:12:00,73.2,69.4,0.00,WNW,293,0.0,0.0,88,0.00,,,0.00,WUHU216HW,2013-08-09 03:12:00,
2013-08-08 23:17:00,73.0,69.2,0.00,WNW,293,0.0,0.0,88,0.00,,,0.00,WUHU216HW,2013-08-09 03:17:00,
2013-08-08 23:22:00,73.0,69.2,0.00,WNW,293,0.0,0.0,88,0.00,,,0.00,WUHU216HW,2013-08-09 03:22:00,
2013-08-08 23:27:00,73.0,69.2,0.00,WNW,293,0.0,0.0,88,0.00,,,0.00,WUHU216HW,2013-08-09 03:27:00,
2013-08-08 23:32:00,73.0,69.2,0.00,WNW,293,0.0,0.0,88,0.00,,,0.00,WUHU216HW,2013-08-09 03:32:00,
2013-08-08 23:37:00,72.8,69.1,0.00,WNW,293,0.0,0.0,88,0.00,,,0.00,WUHU216HW,2013-08-09 03:37:00,
2013-08-08 23:43:00,72.6,68.9,0.00,WNW,293,0.0,0.0,88,0.00,,,0.00,WUHU216HW,2013-08-09 03:43:00,
2013-08-08 23:48:00,72.6,68.9,0.00,WNW,293,0.0,0.0,88,0.00,,,0.00,WUHU216HW,2013-08-09 03:48:00,
2013-08-08 23:53:00,72.6,68.9,0.00,WNW,293,0.0,0.0,88,0.00,,,0.00,WUHU216HW,2013-08-09 03:53:00,
2013-08-08 23:58:00,72.5,68.7,0.00,WNW,293,0.0,0.0,88,0.00,,,0.00,WUHU216HW,2013-08-09 03:58:00,